Waynesfield, Ohio
Current Conditions -  °F | °C
As of 8:19 AM on Tuesday 21 Oct 2014 (Local Time) from KAOH Reporting Station
Overcast Overcast  
Wind Chill:   Ceiling: 1300
Heat Index:   Visibility: 10mi
Dew Point:   Wind: 10mph
Humidity: 83%   Direction: 310°NW
Pressure: 29.97"   Gusts: NA
Location:  40.6°N, 83.98°W
Report Text: KAOH 211219Z AUTO 31009KT 10SM OVC013 09/06 A2997 RMK AO2 RAB10E19 P0000 T00890061
Loading
Personal Weather Stations






























Interactive Weather Map
Tropical Storm Tracking
New forecast layout! Learn more

10-Day Weather Forecast

Advertisements
Track Severe Weather on mobile